Time;durP1;ratioP1;P1;durP2;ratioP2;P2;SDS_P1;SDS_P2;PMS_P1;PMS_P2;Temp;Humidity;BMP_temperature;BMP_pressure;BME280_temperature;BME280_humidity;BME280_pressure;Samples;Min_cycle;Max_cycle;Signal;HPM_P1;HPM_P2
2023/04/30 00:01:52;;;;;;;0.70;0.70;;;9.10;78.40;;;;;;5113945;28;20382;-72
2023/04/30 00:04:18;;;;;;;0.50;0.50;;;9.10;78.20;;;;;;5113933;28;20031;-72
2023/04/30 00:06:44;;;;;;;0.60;0.60;;;9.00;78.30;;;;;;5113597;28;20441;-72
2023/04/30 00:09:09;;;;;;;0.63;0.50;;;9.00;78.30;;;;;;5093900;28;20040;-72
2023/04/30 00:11:35;;;;;;;0.50;0.40;;;9.10;78.40;;;;;;5113101;28;20509;-72
2023/04/30 00:14:01;;;;;;;0.77;0.60;;;9.00;78.40;;;;;;5113493;28;20031;-72
2023/04/30 00:16:26;;;;;;;0.40;0.40;;;9.10;78.50;;;;;;5113480;28;20122;-72
2023/04/30 00:18:52;;;;;;;0.50;0.50;;;8.90;78.40;;;;;;5113101;28;20040;-72
2023/04/30 00:21:18;;;;;;;0.40;0.40;;;9.00;78.60;;;;;;5094464;28;20127;-72
2023/04/30 00:23:43;;;;;;;0.20;0.20;;;8.90;78.60;;;;;;5113377;28;20035;-72
2023/04/30 00:26:09;;;;;;;0.68;0.52;;;8.90;78.60;;;;;;5112974;28;20162;-72
2023/04/30 00:28:35;;;;;;;0.68;0.60;;;8.90;78.70;;;;;;5094318;28;20040;-72
2023/04/30 00:31:01;;;;;;;0.30;0.30;;;8.80;78.70;;;;;;5112701;28;20042;-72
2023/04/30 00:33:27;;;;;;;0.75;0.60;;;8.80;78.80;;;;;;5113348;28;20546;-72
2023/04/30 00:35:52;;;;;;;0.30;0.30;;;8.70;78.90;;;;;;5113001;28;20043;-72
2023/04/30 00:38:18;;;;;;;0.73;0.60;;;8.70;79.00;;;;;;5093521;28;20094;-72
2023/04/30 00:40:44;;;;;;;0.50;0.50;;;8.70;79.10;;;;;;5092799;28;20545;-72
2023/04/30 00:43:10;;;;;;;0.60;0.45;;;8.80;79.20;;;;;;5112757;28;20042;-72
2023/04/30 00:45:35;;;;;;;0.50;0.50;;;8.60;79.10;;;;;;5113113;28;20040;-72
2023/04/30 00:48:01;;;;;;;0.57;0.50;;;8.60;79.10;;;;;;5112576;28;20032;-72
2023/04/30 00:50:28;;;;;;;0.40;0.40;;;8.70;79.30;;;;;;5112668;28;20040;-72
2023/04/30 00:52:54;;;;;;;0.50;0.50;;;8.60;79.20;;;;;;5111664;28;20055;-72
2023/04/30 00:55:20;;;;;;;0.40;0.40;;;8.60;79.20;;;;;;5112554;28;20047;-72
2023/04/30 00:57:46;;;;;;;0.30;0.30;;;8.60;79.20;;;;;;5092513;28;20497;-72
2023/04/30 01:00:12;;;;;;;0.30;0.30;;;8.60;79.30;;;;;;5093991;28;20104;-72
2023/04/30 01:02:39;;;;;;;0.40;0.38;;;8.50;79.30;;;;;;5093956;28;20051;-72
2023/04/30 01:05:06;;;;;;;0.77;0.60;;;8.50;79.40;;;;;;5092685;28;20047;-72
2023/04/30 01:07:33;;;;;;;0.40;0.40;;;8.40;79.50;;;;;;5112318;28;20489;-72
2023/04/30 01:09:59;;;;;;;0.57;0.47;;;8.40;79.60;;;;;;5112403;28;20436;-72
2023/04/30 01:13:05;;;;;;;0.43;0.43;;;8.30;79.70;;;;;;5112274;28;20048;-72
2023/04/30 01:15:41;;;;;;;0.55;0.50;;;8.30;79.80;;;;;;5098289;28;20104;-72
2023/04/30 01:18:28;;;;;;;0.40;0.40;;;8.30;79.80;;;;;;5112416;28;20400;-72
2023/04/30 01:21:00;;;;;;;0.32;0.32;;;8.20;79.70;;;;;;5112367;28;20040;-72
2023/04/30 01:23:57;;;;;;;0.68;0.50;;;8.30;79.80;;;;;;5112110;28;20489;-72
2023/04/30 01:26:52;;;;;;;0.52;0.40;;;8.30;79.90;;;;;;5096955;28;20506;-72
2023/04/30 01:29:19;;;;;;;0.38;0.38;;;8.20;79.90;;;;;;5098317;28;20078;-72
2023/04/30 01:31:45;;;;;;;0.38;0.38;;;8.20;79.80;;;;;;5093130;28;20051;-72
2023/04/30 01:34:10;;;;;;;0.50;0.40;;;8.20;79.80;;;;;;5112098;28;20043;-72
2023/04/30 01:36:53;;;;;;;0.38;0.38;;;8.20;79.90;;;;;;5112140;28;20036;-72
2023/04/30 01:39:49;;;;;;;0.73;0.43;;;8.20;79.90;;;;;;5112384;28;20431;-72
2023/04/30 01:42:21;;;;;;;0.52;0.40;;;8.10;79.90;;;;;;5098824;28;20076;-72
2023/04/30 01:45:13;;;;;;;0.50;0.50;;;8.10;79.90;;;;;;5093092;28;20143;-72
2023/04/30 01:47:49;;;;;;;0.68;0.50;;;8.10;80.00;;;;;;5108301;28;20036;-72
2023/04/30 01:50:41;;;;;;;0.63;0.50;;;8.10;80.00;;;;;;5111605;28;20031;-72
2023/04/30 01:53:12;;;;;;;0.88;0.60;;;8.00;80.10;;;;;;5112156;28;20046;-72
2023/04/30 01:55:52;;;;;;;0.35;0.35;;;8.00;80.20;;;;;;5093523;28;20076;-72
2023/04/30 01:58:21;;;;;;;0.43;0.43;;;8.00;80.30;;;;;;5092648;28;20119;-72
2023/04/30 02:00:47;;;;;;;0.50;0.50;;;8.00;80.30;;;;;;5092815;28;20039;-72
2023/04/30 02:03:12;;;;;;;0.40;0.40;;;7.90;80.30;;;;;;5112980;28;20603;-72
2023/04/30 02:05:38;;;;;;;0.30;0.30;;;8.00;80.30;;;;;;5115666;28;20042;-72
2023/04/30 02:08:04;;;;;;;0.50;0.40;;;7.90;80.30;;;;;;5114983;28;20480;-72
2023/04/30 02:10:29;;;;;;;0.85;0.40;;;7.90;80.30;;;;;;5115079;28;20481;-72
2023/04/30 02:12:55;;;;;;;0.43;0.25;;;8.00;80.40;;;;;;5115478;28;20095;-72
2023/04/30 02:15:21;;;;;;;0.40;0.40;;;7.90;80.40;;;;;;5115224;28;20546;-72
2023/04/30 02:17:46;;;;;;;0.85;0.45;;;7.90;80.50;;;;;;5115119;28;20044;-72
2023/04/30 02:20:12;;;;;;;0.47;0.40;;;7.90;80.50;;;;;;5096717;28;20127;-72
2023/04/30 02:22:38;;;;;;;0.40;0.40;;;7.80;80.40;;;;;;5115254;28;20130;-72
2023/04/30 02:25:04;;;;;;;0.68;0.50;;;7.90;80.50;;;;;;5115312;28;20036;-72
2023/04/30 02:27:31;;;;;;;0.40;0.40;;;7.90;80.50;;;;;;5115207;28;20504;-72
2023/04/30 02:29:57;;;;;;;0.47;0.47;;;7.90;80.50;;;;;;5114843;28;20481;-72
2023/04/30 02:32:23;;;;;;;0.50;0.50;;;7.80;80.50;;;;;;5114676;28;20051;-72
2023/04/30 02:34:49;;;;;;;0.55;0.55;;;7.90;80.50;;;;;;5094928;28;20081;-72
2023/04/30 02:37:15;;;;;;;0.90;0.50;;;7.80;80.50;;;;;;5114582;28;20047;-72
2023/04/30 02:39:40;;;;;;;0.40;0.40;;;7.80;80.50;;;;;;5114718;28;20036;-72
2023/04/30 02:42:06;;;;;;;0.32;0.32;;;7.80;80.60;;;;;;5114581;28;20120;-72
2023/04/30 02:44:33;;;;;;;0.40;0.40;;;7.80;80.60;;;;;;5114956;28;20042;-72
2023/04/30 02:46:59;;;;;;;0.60;0.40;;;7.80;80.60;;;;;;5114430;28;20036;-72
2023/04/30 02:49:25;;;;;;;0.68;0.55;;;7.80;81.30;;;;;;5114282;28;20485;-71
2023/04/30 02:51:51;;;;;;;0.43;0.43;;;7.80;80.60;;;;;;5114466;28;20035;-72
2023/04/30 02:54:17;;;;;;;0.70;0.45;;;7.80;80.70;;;;;;5114327;28;20474;-72
2023/04/30 02:56:43;;;;;;;0.75;0.60;;;7.80;80.70;;;;;;5095341;28;20123;-72
2023/04/30 02:59:09;;;;;;;0.47;0.47;;;7.80;80.60;;;;;;5114359;28;20131;-72
2023/04/30 03:01:34;;;;;;;0.40;0.40;;;7.80;80.70;;;;;;5114114;28;20441;-72
2023/04/30 03:04:02;;;;;;;0.70;0.55;;;7.80;80.70;;;;;;5114431;28;20047;-72
2023/04/30 03:06:28;;;;;;;0.70;0.55;;;7.80;80.70;;;;;;5114099;28;20342;-72
2023/04/30 03:08:54;;;;;;;0.73;0.60;;;7.80;80.70;;;;;;5114435;28;20040;-72
2023/04/30 03:11:20;;;;;;;0.82;0.47;;;7.80;80.70;;;;;;5113963;28;20039;-72
2023/04/30 03:13:50;;;;;;;0.35;0.28;;;7.70;80.70;;;;;;5114073;28;20050;-72
2023/04/30 03:16:17;;;;;;;0.38;0.30;;;7.70;80.80;;;;;;5113108;28;20112;-72
2023/04/30 03:18:43;;;;;;;0.30;0.30;;;7.70;80.90;;;;;;5114471;28;20054;-72
2023/04/30 03:21:09;;;;;;;0.63;0.50;;;7.70;81.00;;;;;;5078879;28;20481;-72
2023/04/30 03:23:35;;;;;;;0.63;0.50;;;7.70;81.00;;;;;;5113745;28;20050;-72
2023/04/30 03:26:00;;;;;;;0.70;0.70;;;7.70;81.00;;;;;;5114338;28;20038;-72
2023/04/30 03:28:26;;;;;;;0.57;0.57;;;7.60;81.00;;;;;;5113794;28;20450;-72
2023/04/30 03:30:52;;;;;;;0.28;0.28;;;7.60;81.10;;;;;;5095148;28;20075;-72
2023/04/30 03:33:17;;;;;;;0.60;0.60;;;7.70;81.10;;;;;;5114124;28;20062;-72
2023/04/30 03:35:43;;;;;;;0.50;0.45;;;7.60;81.10;;;;;;5114069;28;20374;-72
2023/04/30 03:38:09;;;;;;;0.40;0.40;;;7.60;81.10;;;;;;5114145;28;20052;-72
2023/04/30 03:40:34;;;;;;;0.50;0.50;;;7.60;81.10;;;;;;5113655;28;20049;-72
2023/04/30 03:43:00;;;;;;;0.40;0.40;;;7.60;81.10;;;;;;5113588;28;20036;-72
2023/04/30 03:45:25;;;;;;;0.50;0.40;;;7.60;81.30;;;;;;5114050;28;20374;-72
2023/04/30 03:47:51;;;;;;;0.60;0.52;;;7.60;81.20;;;;;;5114079;28;20426;-72
2023/04/30 03:50:17;;;;;;;0.55;0.40;;;7.50;81.20;;;;;;5113817;28;20440;-72
2023/04/30 03:52:44;;;;;;;0.80;0.50;;;7.60;81.30;;;;;;5095252;28;20108;-72
2023/04/30 03:55:10;;;;;;;0.50;0.50;;;7.40;81.30;;;;;;5094582;28;20050;-72
2023/04/30 03:57:37;;;;;;;0.57;0.40;;;7.50;81.40;;;;;;5095621;28;20039;-72
2023/04/30 04:00:06;;;;;;;0.40;0.40;;;7.40;81.40;;;;;;5113392;28;20131;-72
2023/04/30 04:02:32;;;;;;;0.50;0.50;;;7.40;81.50;;;;;;5113375;28;20118;-72
2023/04/30 04:04:58;;;;;;;0.43;0.40;;;7.40;81.50;;;;;;5095423;28;20036;-72
2023/04/30 04:07:24;;;;;;;0.50;0.40;;;7.40;81.60;;;;;;5113652;28;20031;-72
2023/04/30 04:09:49;;;;;;;0.40;0.40;;;7.40;81.60;;;;;;5113616;28;20114;-72
2023/04/30 04:12:15;;;;;;;0.50;0.50;;;7.30;81.60;;;;;;5094862;28;20081;-72
2023/04/30 04:14:41;;;;;;;0.60;0.40;;;7.40;81.60;;;;;;5113387;28;20039;-72
2023/04/30 04:17:07;;;;;;;0.63;0.50;;;7.40;81.70;;;;;;5093603;28;20386;-72
2023/04/30 04:19:32;;;;;;;0.80;0.50;;;7.30;81.70;;;;;;5113627;28;20127;-72
2023/04/30 04:21:58;;;;;;;0.68;0.60;;;7.30;81.80;;;;;;5077976;28;20130;-72
2023/04/30 04:24:24;;;;;;;0.50;0.50;;;7.40;81.90;;;;;;5095037;28;20122;-72
2023/04/30 04:26:50;;;;;;;0.32;0.32;;;7.30;81.80;;;;;;5113066;28;20047;-72
2023/04/30 04:29:16;;;;;;;0.40;0.40;;;7.30;81.80;;;;;;5094212;28;20046;-72
2023/04/30 04:31:42;;;;;;;0.35;0.32;;;7.30;81.90;;;;;;5113785;28;20123;-72
2023/04/30 04:34:08;;;;;;;0.40;0.40;;;7.20;81.80;;;;;;5093398;28;20600;-72
2023/04/30 04:36:34;;;;;;;0.68;0.50;;;7.20;81.90;;;;;;5095013;28;20040;-72
2023/04/30 04:39:01;;;;;;;0.40;0.40;;;7.20;81.90;;;;;;5076906;28;20120;-72
2023/04/30 04:41:28;;;;;;;0.55;0.55;;;7.20;82.00;;;;;;5113360;28;20040;-72
2023/04/30 04:43:55;;;;;;;1.48;0.50;;;7.20;82.00;;;;;;5112964;28;20089;-72
2023/04/30 04:46:21;;;;;;;0.70;0.60;;;7.20;82.00;;;;;;5094045;28;20044;-72
2023/04/30 04:48:47;;;;;;;1.08;0.60;;;7.20;82.00;;;;;;5112788;28;20035;-72
2023/04/30 04:51:12;;;;;;;0.70;0.50;;;7.20;82.00;;;;;;5113370;28;20126;-72
2023/04/30 04:53:38;;;;;;;0.77;0.63;;;7.30;82.10;;;;;;5113178;28;20086;-72
2023/04/30 04:56:04;;;;;;;0.50;0.50;;;7.30;82.10;;;;;;5112634;28;20039;-72
2023/04/30 04:58:30;;;;;;;0.43;0.43;;;7.20;82.10;;;;;;5112554;28;20044;-72
2023/04/30 05:00:56;;;;;;;0.65;0.50;;;7.20;82.10;;;;;;5112790;28;20541;-72
2023/04/30 05:03:22;;;;;;;0.47;0.40;;;7.30;82.10;;;;;;5112352;28;20051;-72
2023/04/30 05:05:47;;;;;;;0.57;0.50;;;7.30;82.00;;;;;;5092797;28;20056;-72
2023/04/30 05:08:13;;;;;;;0.57;0.50;;;7.30;82.00;;;;;;5113044;28;20032;-72
2023/04/30 05:10:39;;;;;;;0.60;0.60;;;7.30;82.00;;;;;;5112287;28;20507;-72
2023/04/30 05:13:04;;;;;;;0.57;0.57;;;7.30;81.90;;;;;;5112761;28;20042;-72
2023/04/30 05:15:30;;;;;;;0.40;0.40;;;7.40;81.90;;;;;;5112378;28;20527;-72
2023/04/30 05:17:55;;;;;;;0.50;0.50;;;7.40;81.90;;;;;;5093279;28;20040;-72
2023/04/30 05:20:21;;;;;;;0.60;0.60;;;7.40;81.80;;;;;;5092637;28;20047;-72
2023/04/30 05:22:47;;;;;;;0.63;0.50;;;7.50;81.90;;;;;;5093943;28;20409;-72
2023/04/30 05:25:12;;;;;;;0.68;0.52;;;7.40;81.80;;;;;;5112371;28;20393;-72
2023/04/30 05:27:38;;;;;;;0.60;0.52;;;7.40;81.70;;;;;;5112783;28;20039;-72
2023/04/30 05:30:04;;;;;;;0.50;0.50;;;7.50;81.80;;;;;;5093918;28;20485;-72
2023/04/30 05:32:30;;;;;;;0.50;0.50;;;7.50;81.80;;;;;;5112690;28;20043;-72
2023/04/30 05:34:55;;;;;;;0.70;0.70;;;7.60;81.80;;;;;;5112353;28;20046;-72
2023/04/30 05:37:21;;;;;;;0.70;0.70;;;7.60;81.70;;;;;;5112192;28;20069;-72
2023/04/30 05:39:47;;;;;;;0.60;0.60;;;7.70;81.80;;;;;;5115815;28;20075;-72
2023/04/30 05:42:13;;;;;;;0.57;0.57;;;7.70;81.70;;;;;;5115635;28;20040;-72
2023/04/30 05:44:40;;;;;;;0.43;0.43;;;7.70;81.70;;;;;;5115623;28;20048;-72
2023/04/30 05:47:06;;;;;;;0.50;0.50;;;7.70;81.60;;;;;;5115643;28;20047;-72
2023/04/30 05:49:31;;;;;;;0.52;0.52;;;7.80;81.60;;;;;;5115560;28;20070;-72
2023/04/30 05:51:57;;;;;;;0.40;0.40;;;7.80;81.60;;;;;;5115995;28;20481;-72
2023/04/30 05:54:23;;;;;;;0.98;0.57;;;7.80;81.50;;;;;;5115723;28;20042;-72
2023/04/30 05:56:48;;;;;;;0.52;0.40;;;8.00;82.20;;;;;;5116022;28;20047;-72
2023/04/30 05:59:14;;;;;;;0.40;0.40;;;7.90;81.40;;;;;;5115997;28;20488;-72
2023/04/30 06:01:40;;;;;;;0.50;0.50;;;8.00;81.50;;;;;;5116044;28;20134;-72
2023/04/30 06:04:08;;;;;;;0.52;0.50;;;8.00;81.50;;;;;;5116083;28;20047;-72
2023/04/30 06:06:33;;;;;;;0.57;0.52;;;8.10;81.40;;;;;;5079576;28;20040;-72
2023/04/30 06:08:59;;;;;;;0.65;0.50;;;8.20;81.30;;;;;;5115366;28;20133;-72
2023/04/30 06:11:25;;;;;;;1.10;0.70;;;8.10;81.20;;;;;;5096369;28;20047;-72
2023/04/30 06:13:51;;;;;;;0.47;0.47;;;8.40;81.30;;;;;;5115282;28;20047;-72
2023/04/30 06:16:16;;;;;;;0.68;0.60;;;8.30;81.10;;;;;;5115856;28;20040;-72
2023/04/30 06:18:43;;;;;;;0.60;0.55;;;8.40;81.10;;;;;;5097605;28;20101;-72
2023/04/30 06:21:08;;;;;;;0.63;0.60;;;8.50;81.00;;;;;;5114967;28;20044;-72
2023/04/30 06:23:34;;;;;;;0.70;0.68;;;8.60;80.90;;;;;;5114929;28;20092;-72
2023/04/30 06:26:00;;;;;;;0.55;0.55;;;8.60;80.90;;;;;;5096821;28;20366;-72
2023/04/30 06:28:25;;;;;;;0.60;0.60;;;8.70;80.80;;;;;;5095947;28;20123;-72
2023/04/30 06:30:53;;;;;;;0.70;0.60;;;8.80;80.80;;;;;;5115212;28;20400;-72
2023/04/30 06:33:18;;;;;;;0.52;0.52;;;8.80;80.70;;;;;;5080422;28;20126;-72
2023/04/30 06:35:44;;;;;;;2.42;0.93;;;8.80;80.60;;;;;;5115080;28;20154;-72
2023/04/30 06:38:10;;;;;;;1.00;0.60;;;8.90;80.60;;;;;;5114911;28;20513;-72
2023/04/30 06:40:35;;;;;;;0.80;0.77;;;8.90;80.50;;;;;;5114898;28;20047;-72
2023/04/30 06:43:01;;;;;;;0.75;0.68;;;9.00;80.40;;;;;;5114896;28;20055;-73
2023/04/30 06:45:27;;;;;;;0.57;0.57;;;9.10;81.00;;;;;;5114770;28;20035;-71
2023/04/30 06:47:53;;;;;;;0.60;0.60;;;9.20;80.30;;;;;;5114829;28;20374;-72
2023/04/30 06:50:20;;;;;;;1.17;0.75;;;9.20;80.20;;;;;;5095967;28;20035;-72
2023/04/30 06:52:46;;;;;;;0.50;0.50;;;9.40;80.30;;;;;;5114651;28;20047;-72
2023/04/30 06:55:12;;;;;;;1.45;0.90;;;9.40;80.20;;;;;;5114560;28;20040;-72
2023/04/30 06:57:38;;;;;;;0.60;0.60;;;9.50;80.10;;;;;;5114567;28;20044;-72
2023/04/30 07:00:05;;;;;;;1.00;0.68;;;9.50;80.00;;;;;;5114615;28;20039;-72
2023/04/30 07:02:31;;;;;;;0.68;0.63;;;9.60;80.00;;;;;;5114184;28;20048;-72
2023/04/30 07:04:57;;;;;;;1.00;0.70;;;9.70;79.90;;;;;;5114437;28;20035;-72
2023/04/30 07:07:23;;;;;;;0.80;0.70;;;9.80;79.90;;;;;;5114534;28;20099;-72
2023/04/30 07:09:49;;;;;;;0.80;0.80;;;9.80;79.80;;;;;;5114549;28;20439;-72
2023/04/30 07:12:15;;;;;;;0.80;0.70;;;10.00;79.80;;;;;;5114719;28;20044;-72
2023/04/30 07:14:41;;;;;;;1.00;0.70;;;10.00;79.70;;;;;;5114355;28;20177;-72
2023/04/30 07:17:07;;;;;;;0.57;0.57;;;10.10;79.60;;;;;;5114332;28;20043;-71
2023/04/30 07:19:32;;;;;;;0.68;0.68;;;10.10;79.50;;;;;;5114642;28;20112;-72
2023/04/30 07:21:58;;;;;;;0.88;0.70;;;10.20;79.40;;;;;;5114200;28;20554;-72
2023/04/30 07:24:23;;;;;;;0.60;0.60;;;10.30;79.30;;;;;;5095396;28;20046;-72
2023/04/30 07:26:49;;;;;;;0.75;0.68;;;10.40;79.30;;;;;;5114584;28;20036;-72
2023/04/30 07:29:15;;;;;;;0.77;0.70;;;10.50;79.20;;;;;;5094004;28;20043;-72
2023/04/30 07:31:41;;;;;;;0.90;0.73;;;10.60;79.20;;;;;;5114553;28;20108;-72
2023/04/30 07:34:07;;;;;;;1.92;0.70;;;10.60;79.10;;;;;;5114452;28;20382;-71
2023/04/30 07:36:33;;;;;;;0.70;0.70;;;10.70;79.10;;;;;;5094118;28;20054;-71
2023/04/30 07:38:58;;;;;;;1.27;0.75;;;10.80;79.00;;;;;;5114064;28;20552;-72
2023/04/30 07:41:25;;;;;;;1.00;0.80;;;10.90;78.90;;;;;;5113799;28;20048;-72
2023/04/30 07:43:50;;;;;;;1.10;0.80;;;10.90;78.80;;;;;;5093978;28;20123;-72
2023/04/30 07:46:16;;;;;;;1.20;0.80;;;11.10;78.80;;;;;;5114019;28;20070;-72
2023/04/30 07:48:41;;;;;;;0.88;0.82;;;11.20;78.60;;;;;;5113730;28;20461;-72
2023/04/30 07:51:07;;;;;;;0.85;0.60;;;11.40;78.50;;;;;;5094173;28;20481;-72
2023/04/30 07:53:33;;;;;;;1.13;0.85;;;11.40;78.10;;;;;;5114470;28;20114;-71
2023/04/30 07:55:58;;;;;;;1.20;0.93;;;11.70;78.20;;;;;;5114327;28;20492;-71
2023/04/30 07:58:24;;;;;;;0.98;0.65;;;11.80;77.90;;;;;;5093828;28;20495;-71
2023/04/30 08:00:50;;;;;;;2.22;0.75;;;11.90;78.30;;;;;;5113179;28;20036;-71
2023/04/30 08:03:15;;;;;;;0.57;0.55;;;12.20;77.60;;;;;;5113944;28;20031;-71
2023/04/30 08:05:41;;;;;;;1.13;0.70;;;12.40;77.40;;;;;;5113805;28;20133;-70
2023/04/30 08:08:07;;;;;;;0.60;0.60;;;12.60;77.10;;;;;;5114109;28;20037;-70
2023/04/30 08:10:33;;;;;;;0.70;0.60;;;12.80;77.00;;;;;;5113939;28;20028;-70
2023/04/30 08:12:58;;;;;;;0.60;0.60;;;12.90;76.80;;;;;;5113621;28;20493;-70
2023/04/30 08:15:24;;;;;;;0.85;0.70;;;13.10;76.70;;;;;;5113652;28;20092;-70
2023/04/30 08:17:50;;;;;;;0.70;0.70;;;13.20;76.50;;;;;;5113284;28;20074;-71
2023/04/30 08:20:17;;;;;;;0.68;0.60;;;13.20;76.40;;;;;;5113472;28;20122;-70
2023/04/30 08:22:43;;;;;;;0.63;0.63;;;13.40;76.50;;;;;;5094957;28;20097;-70
2023/04/30 08:25:11;;;;;;;0.60;0.60;;;13.50;76.40;;;;;;5094923;28;20114;-70
2023/04/30 08:27:37;;;;;;;0.90;0.90;;;13.70;76.30;;;;;;5113766;28;20043;-71
2023/04/30 08:30:03;;;;;;;0.85;0.70;;;13.90;76.20;;;;;;5113341;28;20046;-71
2023/04/30 08:32:29;;;;;;;1.00;0.70;;;14.00;76.10;;;;;;5093506;28;20078;-70
2023/04/30 08:34:55;;;;;;;1.83;0.82;;;14.20;76.00;;;;;;5078111;28;20067;-70
2023/04/30 08:37:20;;;;;;;0.80;0.70;;;14.30;75.80;;;;;;5113648;28;20395;-70
2023/04/30 08:39:46;;;;;;;0.60;0.60;;;14.30;76.40;;;;;;5093371;28;20039;-71
2023/04/30 08:42:14;;;;;;;0.82;0.70;;;14.50;75.70;;;;;;5113560;28;20050;-71
2023/04/30 08:44:42;;;;;;;0.85;0.70;;;14.70;75.60;;;;;;5113506;28;20062;-69
2023/04/30 08:47:12;;;;;;;1.13;0.80;;;14.80;75.50;;;;;;5112674;28;20481;-69
2023/04/30 08:49:38;;;;;;;1.02;0.63;;;14.90;75.50;;;;;;5093655;28;20042;-69
2023/04/30 08:52:03;;;;;;;1.55;0.80;;;15.00;75.50;;;;;;5113307;28;20421;-69
2023/04/30 08:54:32;;;;;;;0.75;0.75;;;15.10;75.60;;;;;;5113352;28;20530;-69
2023/04/30 08:56:57;;;;;;;1.10;0.93;;;15.20;75.50;;;;;;5094184;28;20090;-69
2023/04/30 08:59:23;;;;;;;0.90;0.90;;;15.20;75.30;;;;;;5093141;28;20047;-69
2023/04/30 09:01:49;;;;;;;1.65;0.85;;;15.20;75.40;;;;;;5112682;28;20043;-69
2023/04/30 09:04:15;;;;;;;1.02;0.80;;;15.30;75.50;;;;;;5112456;28;20038;-69
2023/04/30 09:06:42;;;;;;;1.00;0.80;;;15.40;75.50;;;;;;5112602;28;20059;-71
2023/04/30 09:09:11;;;;;;;1.63;1.10;;;15.50;75.50;;;;;;5093014;28;20033;-71
2023/04/30 09:11:37;;;;;;;1.30;0.77;;;15.60;75.50;;;;;;5112427;28;20040;-71
2023/04/30 09:14:02;;;;;;;0.80;0.80;;;15.60;75.20;;;;;;5114931;28;20069;-71
2023/04/30 09:16:43;;;;;;;2.35;0.80;;;15.70;75.20;;;;;;5116378;28;20055;-71
2023/04/30 09:19:09;;;;;;;0.70;0.60;;;15.90;75.10;;;;;;5116283;28;20039;-70
2023/04/30 09:21:36;;;;;;;0.73;0.73;;;16.00;75.20;;;;;;5116072;28;20116;-71
2023/04/30 09:24:04;;;;;;;1.10;0.73;;;16.10;74.90;;;;;;5116201;28;20043;-71
2023/04/30 09:26:35;;;;;;;1.02;0.77;;;16.20;74.90;;;;;;5116018;28;20035;-71
2023/04/30 09:29:06;;;;;;;0.70;0.70;;;16.20;74.70;;;;;;5116008;28;20043;-71
2023/04/30 09:31:33;;;;;;;1.20;0.90;;;16.20;74.70;;;;;;5116559;28;20438;-71
2023/04/30 09:33:59;;;;;;;1.00;0.80;;;16.30;74.80;;;;;;5116394;28;20122;-71
2023/04/30 09:36:26;;;;;;;0.95;0.80;;;16.30;74.80;;;;;;5116522;28;20123;-71
2023/04/30 09:38:52;;;;;;;0.93;0.70;;;16.40;74.70;;;;;;5116482;28;20048;-71
2023/04/30 09:41:27;;;;;;;1.23;0.80;;;16.50;74.50;;;;;;5097174;28;20032;-70
2023/04/30 09:43:55;;;;;;;1.92;0.95;;;16.50;74.30;;;;;;5097764;28;20036;-71
2023/04/30 09:46:28;;;;;;;0.75;0.75;;;16.50;74.40;;;;;;5116479;28;20027;-71
2023/04/30 09:48:57;;;;;;;0.82;0.75;;;16.60;74.60;;;;;;5097328;28;20110;-70
2023/04/30 09:51:23;;;;;;;0.60;0.60;;;16.70;74.50;;;;;;5115755;28;20074;-71
2023/04/30 09:53:50;;;;;;;0.80;0.80;;;16.70;74.30;;;;;;5115651;28;20477;-70
2023/04/30 09:56:21;;;;;;;1.60;0.80;;;16.70;74.10;;;;;;5115665;28;20043;-71
2023/04/30 09:58:51;;;;;;;0.98;0.70;;;16.70;74.00;;;;;;5095834;28;20036;-71
2023/04/30 10:01:17;;;;;;;0.70;0.70;;;16.80;74.10;;;;;;5115629;28;20027;-70
2023/04/30 10:03:44;;;;;;;0.60;0.60;;;16.80;74.20;;;;;;5097197;28;20040;-71
2023/04/30 10:06:12;;;;;;;0.70;0.60;;;16.80;74.00;;;;;;5115501;28;20063;-71
2023/04/30 10:08:41;;;;;;;1.15;0.77;;;16.80;74.00;;;;;;5115969;28;20039;-70
2023/04/30 10:11:08;;;;;;;0.70;0.70;;;16.90;74.00;;;;;;5115547;28;20051;-71
2023/04/30 10:13:41;;;;;;;1.42;0.98;;;16.90;74.00;;;;;;5115392;28;20429;-71
2023/04/30 10:16:24;;;;;;;0.90;0.80;;;17.00;73.90;;;;;;5115804;28;20047;-70
2023/04/30 10:18:52;;;;;;;0.88;0.70;;;17.00;73.70;;;;;;5115354;28;20054;-70
2023/04/30 10:21:21;;;;;;;0.77;0.75;;;16.90;73.60;;;;;;5078039;28;20041;-70
2023/04/30 10:23:47;;;;;;;1.10;0.77;;;16.90;73.60;;;;;;5114844;28;20039;-71
2023/04/30 10:26:15;;;;;;;0.70;0.60;;;17.00;73.60;;;;;;5115731;28;20065;-70
2023/04/30 10:28:41;;;;;;;0.60;0.60;;;16.90;73.60;;;;;;5115352;28;20036;-70
2023/04/30 10:31:10;;;;;;;1.23;0.77;;;16.90;74.20;;;;;;5115041;28;20088;-70
2023/04/30 10:34:10;;;;;;;1.50;0.70;;;17.00;73.50;;;;;;5115087;28;20040;-71
2023/04/30 10:36:43;;;;;;;0.60;0.60;;;16.80;73.20;;;;;;5115248;28;20048;-70
2023/04/30 10:39:11;;;;;;;0.65;0.65;;;16.90;73.40;;;;;;5111889;28;20036;-70
2023/04/30 10:41:37;;;;;;;0.93;0.80;;;17.00;73.50;;;;;;5115385;28;20475;-71
2023/04/30 10:44:04;;;;;;;0.73;0.73;;;17.10;73.10;;;;;;5115232;28;20073;-71
2023/04/30 10:46:30;;;;;;;0.85;0.60;;;17.10;73.10;;;;;;5114910;28;20515;-71
2023/04/30 10:48:55;;;;;;;1.00;0.90;;;17.10;73.00;;;;;;5115136;28;20040;-71
2023/04/30 10:51:21;;;;;;;1.52;0.88;;;17.20;72.80;;;;;;5114674;28;20393;-70
2023/04/30 10:53:50;;;;;;;1.20;0.80;;;17.20;72.50;;;;;;5114727;28;20118;-70
2023/04/30 10:56:30;;;;;;;0.85;0.80;;;17.20;72.60;;;;;;5095080;28;20078;-70
2023/04/30 10:59:01;;;;;;;0.90;0.60;;;17.20;72.40;;;;;;5115284;28;20047;-70
2023/04/30 11:01:27;;;;;;;;;;;17.20;72.20;;;;;;5114908;28;20043;-70
2023/04/30 11:04:07;;;;;;;;;;;17.30;72.30;;;;;;5115068;28;19972;-70
2023/04/30 11:06:48;;;;;;;;;;;17.20;72.40;;;;;;5114968;28;19912;-70
2023/04/30 11:09:13;;;;;;;;;;;17.30;72.60;;;;;;5114916;28;19912;-70
2023/04/30 11:11:39;;;;;;;;;;;17.40;72.50;;;;;;5114946;28;19918;-71
2023/04/30 11:14:04;;;;;;;;;;;17.40;72.40;;;;;;5115010;28;19912;-70
2023/04/30 11:16:32;;;;;;;;;;;17.50;72.50;;;;;;5114842;28;19912;-71
2023/04/30 11:19:06;;;;;;;;;;;17.40;72.40;;;;;;5114736;28;19911;-71
2023/04/30 11:21:32;;;;;;;;;;;17.50;72.40;;;;;;5114600;28;19946;-71
2023/04/30 11:24:03;;;;;;;;;;;17.40;72.50;;;;;;5114601;28;19919;-71
2023/04/30 11:26:28;;;;;;;;;;;17.50;72.40;;;;;;5114561;28;19926;-71
2023/04/30 11:28:54;;;;;;;;;;;17.60;72.20;;;;;;5114541;28;19911;-70
2023/04/30 11:31:19;;;;;;;;;;;17.60;72.20;;;;;;5114626;28;20379;-71
2023/04/30 11:33:45;;;;;;;;;;;17.60;72.20;;;;;;5095865;28;19919;-70
2023/04/30 11:36:13;;;;;;;;;;;17.70;72.10;;;;;;5113433;28;19912;-70
2023/04/30 11:38:38;;;;;;;;;;;17.70;71.90;;;;;;5094584;28;19951;-71
2023/04/30 11:41:04;;;;;;;;;;;17.80;71.90;;;;;;5114331;28;20324;-70
2023/04/30 11:43:30;;;;;;;;;;;17.70;71.80;;;;;;5114424;28;19915;-70
2023/04/30 11:46:10;;;;;;;;;;;17.70;71.80;;;;;;5114223;28;19916;-70
2023/04/30 11:48:36;;;;;;;;;;;17.70;71.90;;;;;;5114400;28;19957;-70
2023/04/30 11:51:04;;;;;;;;;;;17.60;72.10;;;;;;5095048;28;20032;-70
2023/04/30 11:53:30;;;;;;;;;;;17.60;72.20;;;;;;5114233;28;19994;-70
2023/04/30 11:55:55;;;;;;;;;;;17.70;72.20;;;;;;5114072;28;19959;-71
2023/04/30 11:58:21;;;;;;;;;;;17.80;72.00;;;;;;5095252;28;19920;-71
2023/04/30 12:00:48;;;;;;;;;;;17.70;71.80;;;;;;5114050;28;19911;-71
2023/04/30 12:03:14;;;;;;;;;;;17.70;71.80;;;;;;5113982;28;19923;-71
2023/04/30 12:05:40;;;;;;;;;;;17.70;71.80;;;;;;5114058;28;19955;-70
2023/04/30 12:08:08;;;;;;;;;;;17.90;71.90;;;;;;5114079;28;20382;-70
2023/04/30 12:10:34;;;;;;;;;;;17.90;71.60;;;;;;5113960;28;20052;-70
2023/04/30 12:12:59;;;;;;;;;;;18.00;71.50;;;;;;5113992;28;20352;-70
2023/04/30 12:15:25;;;;;;;;;;;18.00;71.30;;;;;;5113882;28;19908;-70
2023/04/30 12:17:52;;;;;;;;;;;18.10;71.30;;;;;;5113868;28;19997;-70
2023/04/30 12:20:18;;;;;;;;;;;18.00;71.30;;;;;;5113755;28;20432;-70
2023/04/30 12:22:44;;;;;;;;;;;18.00;71.50;;;;;;5113491;28;19942;-71
2023/04/30 12:25:12;;;;;;;;;;;18.00;71.50;;;;;;5113706;28;20425;-70
2023/04/30 12:27:40;;;;;;;;;;;18.00;71.30;;;;;;5113601;28;19912;-71
2023/04/30 12:30:07;;;;;;;;;;;18.00;71.30;;;;;;5113611;28;19915;-70
2023/04/30 12:32:37;;;;;;;;;;;18.10;71.40;;;;;;5113522;28;20345;-71
2023/04/30 12:35:03;;;;;;;;;;;18.10;71.40;;;;;;5113428;28;19990;-70
2023/04/30 12:37:29;;;;;;;;;;;18.00;71.40;;;;;;5113515;28;20269;-70
2023/04/30 12:39:55;;;;;;;;;;;18.00;71.30;;;;;;5113442;28;19919;-70
2023/04/30 12:42:20;;;;;;;;;;;18.00;71.30;;;;;;5113249;28;19964;-70
2023/04/30 12:44:46;;;;;;;;;;;18.00;71.30;;;;;;5113346;28;20014;-71
2023/04/30 12:47:13;;;;;;;;;;;18.00;71.30;;;;;;5113167;28;19915;-71
2023/04/30 12:49:38;;;;;;;;;;;18.00;71.30;;;;;;5113442;28;19911;-70
2023/04/30 12:52:07;;;;;;;;;;;17.90;71.30;;;;;;5095255;28;19918;-71
2023/04/30 12:54:34;;;;;;;;;;;18.00;71.40;;;;;;5094650;28;20350;-70
2023/04/30 12:57:00;;;;;;;;;;;17.90;71.40;;;;;;5113220;28;19916;-71
2023/04/30 12:59:26;;;;;;;;;;;17.90;71.70;;;;;;5113139;28;20006;-71
2023/04/30 13:01:53;;;;;;;;;;;17.90;71.30;;;;;;5113217;28;20399;-70
2023/04/30 13:04:19;;;;;;;;;;;18.00;71.30;;;;;;5113182;28;19911;-70
2023/04/30 13:06:44;;;;;;;;;;;18.00;71.20;;;;;;5113082;28;19919;-71